sensor_id;sensor_type;location;lat;lon;timestamp;P1;durP1;ratioP1;P2;durP2;ratioP2
53927;SDS011;39837;47.630;18.822;2022-07-05T00:00:04;1.58;;;1.48;;
53927;SDS011;39837;47.630;18.822;2022-07-05T00:05:32;4.88;;;1.13;;
53927;SDS011;39837;47.630;18.822;2022-07-05T00:08:16;2.05;;;1.13;;
53927;SDS011;39837;47.630;18.822;2022-07-05T00:11:00;1.67;;;1.40;;
53927;SDS011;39837;47.630;18.822;2022-07-05T00:13:44;5.55;;;1.80;;
53927;SDS011;39837;47.630;18.822;2022-07-05T00:16:27;2.90;;;1.50;;
53927;SDS011;39837;47.630;18.822;2022-07-05T00:19:11;1.27;;;1.27;;
53927;SDS011;39837;47.630;18.822;2022-07-05T00:21:55;1.95;;;1.40;;
53927;SDS011;39837;47.630;18.822;2022-07-05T00:24:41;3.03;;;1.60;;
53927;SDS011;39837;47.630;18.822;2022-07-05T00:27:25;2.05;;;1.65;;
53927;SDS011;39837;47.630;18.822;2022-07-05T00:30:09;3.55;;;1.17;;
53927;SDS011;39837;47.630;18.822;2022-07-05T00:32:53;1.30;;;1.23;;
53927;SDS011;39837;47.630;18.822;2022-07-05T00:35:37;1.15;;;1.15;;
53927;SDS011;39837;47.630;18.822;2022-07-05T00:38:21;2.03;;;1.25;;
53927;SDS011;39837;47.630;18.822;2022-07-05T00:43:55;1.63;;;1.52;;
53927;SDS011;39837;47.630;18.822;2022-07-05T00:46:41;1.45;;;1.45;;
53927;SDS011;39837;47.630;18.822;2022-07-05T00:49:26;5.68;;;1.45;;
53927;SDS011;39837;47.630;18.822;2022-07-05T00:52:11;8.95;;;1.38;;
53927;SDS011;39837;47.630;18.822;2022-07-05T00:54:55;1.10;;;1.10;;
53927;SDS011;39837;47.630;18.822;2022-07-05T00:57:39;1.35;;;1.35;;
53927;SDS011;39837;47.630;18.822;2022-07-05T01:00:23;1.52;;;1.45;;
53927;SDS011;39837;47.630;18.822;2022-07-05T01:03:07;1.33;;;1.33;;
53927;SDS011;39837;47.630;18.822;2022-07-05T01:05:52;2.63;;;1.73;;
53927;SDS011;39837;47.630;18.822;2022-07-05T01:08:37;1.45;;;1.45;;
53927;SDS011;39837;47.630;18.822;2022-07-05T01:11:22;1.13;;;1.13;;
53927;SDS011;39837;47.630;18.822;2022-07-05T01:14:07;1.60;;;1.50;;
53927;SDS011;39837;47.630;18.822;2022-07-05T01:16:54;1.52;;;1.42;;
53927;SDS011;39837;47.630;18.822;2022-07-05T01:19:38;1.42;;;1.42;;
53927;SDS011;39837;47.630;18.822;2022-07-05T01:22:24;1.10;;;1.10;;
53927;SDS011;39837;47.630;18.822;2022-07-05T01:25:09;1.65;;;1.55;;
53927;SDS011;39837;47.630;18.822;2022-07-05T01:27:54;1.40;;;1.40;;
53927;SDS011;39837;47.630;18.822;2022-07-05T01:30:39;1.50;;;1.42;;
53927;SDS011;39837;47.630;18.822;2022-07-05T01:33:30;2.03;;;1.88;;
53927;SDS011;39837;47.630;18.822;2022-07-05T01:36:14;1.30;;;1.30;;
53927;SDS011;39837;47.630;18.822;2022-07-05T01:38:58;1.20;;;1.20;;
53927;SDS011;39837;47.630;18.822;2022-07-05T01:41:43;1.90;;;1.48;;
53927;SDS011;39837;47.630;18.822;2022-07-05T01:44:27;1.48;;;1.48;;
53927;SDS011;39837;47.630;18.822;2022-07-05T01:47:11;2.15;;;1.30;;
53927;SDS011;39837;47.630;18.822;2022-07-05T01:49:57;1.20;;;1.20;;
53927;SDS011;39837;47.630;18.822;2022-07-05T01:55:27;1.20;;;1.20;;
53927;SDS011;39837;47.630;18.822;2022-07-05T01:58:11;1.27;;;1.27;;
53927;SDS011;39837;47.630;18.822;2022-07-05T02:00:56;1.10;;;1.10;;
53927;SDS011;39837;47.630;18.822;2022-07-05T02:03:41;1.20;;;1.20;;
53927;SDS011;39837;47.630;18.822;2022-07-05T02:06:25;9.27;;;1.27;;
53927;SDS011;39837;47.630;18.822;2022-07-05T02:09:09;1.17;;;1.15;;
53927;SDS011;39837;47.630;18.822;2022-07-05T02:11:53;1.45;;;1.40;;
53927;SDS011;39837;47.630;18.822;2022-07-05T02:14:37;1.38;;;1.20;;
53927;SDS011;39837;47.630;18.822;2022-07-05T02:17:21;1.30;;;1.30;;
53927;SDS011;39837;47.630;18.822;2022-07-05T02:20:05;1.10;;;1.10;;
53927;SDS011;39837;47.630;18.822;2022-07-05T02:22:49;1.02;;;1.00;;
53927;SDS011;39837;47.630;18.822;2022-07-05T02:25:33;1.45;;;1.35;;
53927;SDS011;39837;47.630;18.822;2022-07-05T02:28:18;1.23;;;1.23;;
53927;SDS011;39837;47.630;18.822;2022-07-05T02:31:02;1.00;;;1.00;;
53927;SDS011;39837;47.630;18.822;2022-07-05T02:33:46;1.23;;;1.23;;
53927;SDS011;39837;47.630;18.822;2022-07-05T02:36:30;1.30;;;1.30;;
53927;SDS011;39837;47.630;18.822;2022-07-05T02:39:13;1.35;;;1.10;;
53927;SDS011;39837;47.630;18.822;2022-07-05T02:41:57;2.15;;;1.40;;
53927;SDS011;39837;47.630;18.822;2022-07-05T02:44:41;1.88;;;1.40;;
53927;SDS011;39837;47.630;18.822;2022-07-05T02:47:25;1.88;;;1.48;;
53927;SDS011;39837;47.630;18.822;2022-07-05T02:50:12;1.65;;;1.45;;
53927;SDS011;39837;47.630;18.822;2022-07-05T02:52:56;1.58;;;1.30;;
53927;SDS011;39837;47.630;18.822;2022-07-05T02:55:40;2.33;;;1.90;;
53927;SDS011;39837;47.630;18.822;2022-07-05T02:58:24;1.83;;;1.73;;
53927;SDS011;39837;47.630;18.822;2022-07-05T03:01:08;4.90;;;1.90;;
53927;SDS011;39837;47.630;18.822;2022-07-05T03:03:52;3.15;;;1.92;;
53927;SDS011;39837;47.630;18.822;2022-07-05T03:06:36;3.03;;;1.40;;
53927;SDS011;39837;47.630;18.822;2022-07-05T03:09:20;1.80;;;1.45;;
53927;SDS011;39837;47.630;18.822;2022-07-05T03:12:04;2.90;;;1.60;;
53927;SDS011;39837;47.630;18.822;2022-07-05T03:14:49;1.40;;;1.40;;
53927;SDS011;39837;47.630;18.822;2022-07-05T03:17:33;6.95;;;1.33;;
53927;SDS011;39837;47.630;18.822;2022-07-05T03:20:17;1.63;;;1.48;;
53927;SDS011;39837;47.630;18.822;2022-07-05T03:23:01;4.22;;;1.55;;
53927;SDS011;39837;47.630;18.822;2022-07-05T03:25:45;1.73;;;1.40;;
53927;SDS011;39837;47.630;18.822;2022-07-05T03:28:29;1.98;;;1.38;;
53927;SDS011;39837;47.630;18.822;2022-07-05T03:31:13;1.50;;;1.50;;
53927;SDS011;39837;47.630;18.822;2022-07-05T03:33:57;1.40;;;1.38;;
53927;SDS011;39837;47.630;18.822;2022-07-05T03:36:41;1.60;;;1.50;;
53927;SDS011;39837;47.630;18.822;2022-07-05T03:39:25;8.32;;;1.77;;
53927;SDS011;39837;47.630;18.822;2022-07-05T03:42:09;3.13;;;1.50;;
53927;SDS011;39837;47.630;18.822;2022-07-05T03:44:53;4.07;;;1.63;;
53927;SDS011;39837;47.630;18.822;2022-07-05T03:47:37;2.10;;;1.90;;
53927;SDS011;39837;47.630;18.822;2022-07-05T03:50:22;1.33;;;1.33;;
53927;SDS011;39837;47.630;18.822;2022-07-05T03:53:05;1.83;;;1.67;;
53927;SDS011;39837;47.630;18.822;2022-07-05T03:55:49;1.42;;;1.30;;
53927;SDS011;39837;47.630;18.822;2022-07-05T03:58:33;4.35;;;1.88;;
53927;SDS011;39837;47.630;18.822;2022-07-05T04:01:18;8.20;;;1.63;;
53927;SDS011;39837;47.630;18.822;2022-07-05T04:04:02;1.15;;;1.15;;
53927;SDS011;39837;47.630;18.822;2022-07-05T04:06:46;1.70;;;1.60;;
53927;SDS011;39837;47.630;18.822;2022-07-05T04:09:30;1.25;;;1.25;;
53927;SDS011;39837;47.630;18.822;2022-07-05T04:12:16;2.05;;;1.40;;
53927;SDS011;39837;47.630;18.822;2022-07-05T04:15:00;3.90;;;1.60;;
53927;SDS011;39837;47.630;18.822;2022-07-05T04:20:35;1.83;;;1.40;;
53927;SDS011;39837;47.630;18.822;2022-07-05T04:23:20;1.45;;;1.10;;
53927;SDS011;39837;47.630;18.822;2022-07-05T04:26:04;5.88;;;1.40;;
53927;SDS011;39837;47.630;18.822;2022-07-05T04:28:48;1.30;;;1.23;;
53927;SDS011;39837;47.630;18.822;2022-07-05T04:31:31;1.40;;;1.40;;
53927;SDS011;39837;47.630;18.822;2022-07-05T04:34:15;1.23;;;1.23;;
53927;SDS011;39837;47.630;18.822;2022-07-05T04:36:59;1.55;;;1.35;;
53927;SDS011;39837;47.630;18.822;2022-07-05T04:39:43;1.73;;;1.63;;
53927;SDS011;39837;47.630;18.822;2022-07-05T04:42:27;1.40;;;1.40;;
53927;SDS011;39837;47.630;18.822;2022-07-05T04:45:11;1.27;;;1.20;;
53927;SDS011;39837;47.630;18.822;2022-07-05T04:47:55;1.50;;;1.40;;
53927;SDS011;39837;47.630;18.822;2022-07-05T04:50:39;4.97;;;2.20;;
53927;SDS011;39837;47.630;18.822;2022-07-05T04:53:23;1.30;;;1.30;;
53927;SDS011;39837;47.630;18.822;2022-07-05T04:56:07;1.38;;;1.20;;
53927;SDS011;39837;47.630;18.822;2022-07-05T04:58:51;0.95;;;0.95;;
53927;SDS011;39837;47.630;18.822;2022-07-05T05:01:35;7.68;;;1.30;;
53927;SDS011;39837;47.630;18.822;2022-07-05T05:04:19;1.65;;;1.55;;
53927;SDS011;39837;47.630;18.822;2022-07-05T05:07:03;1.70;;;1.60;;
53927;SDS011;39837;47.630;18.822;2022-07-05T05:09:47;3.13;;;1.50;;
53927;SDS011;39837;47.630;18.822;2022-07-05T05:12:31;1.13;;;1.13;;
53927;SDS011;39837;47.630;18.822;2022-07-05T05:15:15;1.65;;;1.65;;
53927;SDS011;39837;47.630;18.822;2022-07-05T05:17:59;4.13;;;1.20;;
53927;SDS011;39837;47.630;18.822;2022-07-05T05:20:44;1.48;;;1.48;;
53927;SDS011;39837;47.630;18.822;2022-07-05T05:23:28;1.58;;;1.42;;
53927;SDS011;39837;47.630;18.822;2022-07-05T05:26:12;2.17;;;1.55;;
53927;SDS011;39837;47.630;18.822;2022-07-05T05:28:56;1.23;;;1.23;;
53927;SDS011;39837;47.630;18.822;2022-07-05T05:31:40;1.48;;;1.20;;
53927;SDS011;39837;47.630;18.822;2022-07-05T05:34:24;1.20;;;1.20;;
53927;SDS011;39837;47.630;18.822;2022-07-05T05:37:08;1.63;;;1.55;;
53927;SDS011;39837;47.630;18.822;2022-07-05T05:39:52;1.75;;;1.65;;
53927;SDS011;39837;47.630;18.822;2022-07-05T05:42:36;0.98;;;0.98;;
53927;SDS011;39837;47.630;18.822;2022-07-05T05:45:20;1.10;;;1.10;;
53927;SDS011;39837;47.630;18.822;2022-07-05T05:48:04;4.60;;;1.30;;
53927;SDS011;39837;47.630;18.822;2022-07-05T05:50:49;1.98;;;1.45;;
53927;SDS011;39837;47.630;18.822;2022-07-05T05:53:34;1.27;;;1.20;;
53927;SDS011;39837;47.630;18.822;2022-07-05T05:56:17;4.70;;;1.83;;
53927;SDS011;39837;47.630;18.822;2022-07-05T05:59:01;2.95;;;1.38;;
53927;SDS011;39837;47.630;18.822;2022-07-05T06:01:46;1.00;;;1.00;;
53927;SDS011;39837;47.630;18.822;2022-07-05T06:04:30;3.60;;;1.90;;
53927;SDS011;39837;47.630;18.822;2022-07-05T06:07:14;1.30;;;1.20;;
53927;SDS011;39837;47.630;18.822;2022-07-05T06:09:58;3.00;;;1.58;;
53927;SDS011;39837;47.630;18.822;2022-07-05T06:12:42;1.83;;;1.20;;
53927;SDS011;39837;47.630;18.822;2022-07-05T06:15:26;1.05;;;1.05;;
53927;SDS011;39837;47.630;18.822;2022-07-05T06:18:11;1.02;;;1.02;;
53927;SDS011;39837;47.630;18.822;2022-07-05T06:20:55;2.28;;;1.35;;
53927;SDS011;39837;47.630;18.822;2022-07-05T06:23:39;3.60;;;1.55;;
53927;SDS011;39837;47.630;18.822;2022-07-05T06:26:23;3.50;;;1.45;;
53927;SDS011;39837;47.630;18.822;2022-07-05T06:29:07;1.92;;;1.30;;
53927;SDS011;39837;47.630;18.822;2022-07-05T06:31:51;1.45;;;1.33;;
53927;SDS011;39837;47.630;18.822;2022-07-05T06:34:35;1.15;;;1.10;;
53927;SDS011;39837;47.630;18.822;2022-07-05T06:37:19;1.38;;;1.27;;
53927;SDS011;39837;47.630;18.822;2022-07-05T06:40:03;3.67;;;1.55;;
53927;SDS011;39837;47.630;18.822;2022-07-05T06:42:47;0.70;;;0.70;;
53927;SDS011;39837;47.630;18.822;2022-07-05T06:45:32;1.20;;;1.20;;
53927;SDS011;39837;47.630;18.822;2022-07-05T06:48:16;2.90;;;1.30;;
53927;SDS011;39837;47.630;18.822;2022-07-05T06:51:00;1.25;;;1.15;;
53927;SDS011;39837;47.630;18.822;2022-07-05T06:53:44;1.02;;;1.02;;
53927;SDS011;39837;47.630;18.822;2022-07-05T06:56:28;1.30;;;1.30;;
53927;SDS011;39837;47.630;18.822;2022-07-05T06:59:12;3.30;;;1.40;;
53927;SDS011;39837;47.630;18.822;2022-07-05T07:01:56;0.93;;;0.93;;
53927;SDS011;39837;47.630;18.822;2022-07-05T07:04:40;1.38;;;1.27;;
53927;SDS011;39837;47.630;18.822;2022-07-05T07:07:24;1.55;;;1.00;;
53927;SDS011;39837;47.630;18.822;2022-07-05T07:10:27;0.93;;;0.93;;
53927;SDS011;39837;47.630;18.822;2022-07-05T07:13:11;1.35;;;1.30;;
53927;SDS011;39837;47.630;18.822;2022-07-05T07:15:56;1.63;;;1.52;;
53927;SDS011;39837;47.630;18.822;2022-07-05T07:18:40;1.65;;;1.60;;
53927;SDS011;39837;47.630;18.822;2022-07-05T07:21:24;1.63;;;1.60;;
53927;SDS011;39837;47.630;18.822;2022-07-05T07:24:09;2.38;;;1.13;;
53927;SDS011;39837;47.630;18.822;2022-07-05T07:26:53;16.35;;;1.65;;
53927;SDS011;39837;47.630;18.822;2022-07-05T07:29:46;1.20;;;1.20;;
53927;SDS011;39837;47.630;18.822;2022-07-05T07:32:30;1.48;;;1.10;;
53927;SDS011;39837;47.630;18.822;2022-07-05T07:35:14;3.15;;;1.40;;
53927;SDS011;39837;47.630;18.822;2022-07-05T07:37:58;2.50;;;1.60;;
53927;SDS011;39837;47.630;18.822;2022-07-05T07:40:42;2.08;;;1.58;;
53927;SDS011;39837;47.630;18.822;2022-07-05T07:43:26;1.65;;;1.55;;
53927;SDS011;39837;47.630;18.822;2022-07-05T07:46:10;1.55;;;1.45;;
53927;SDS011;39837;47.630;18.822;2022-07-05T07:48:54;1.50;;;1.50;;
53927;SDS011;39837;47.630;18.822;2022-07-05T07:51:39;1.52;;;1.50;;
53927;SDS011;39837;47.630;18.822;2022-07-05T07:54:23;1.40;;;1.13;;
53927;SDS011;39837;47.630;18.822;2022-07-05T07:57:07;1.30;;;1.20;;
53927;SDS011;39837;47.630;18.822;2022-07-05T07:59:51;1.38;;;1.38;;
53927;SDS011;39837;47.630;18.822;2022-07-05T08:02:35;1.25;;;1.20;;
53927;SDS011;39837;47.630;18.822;2022-07-05T08:05:19;4.28;;;1.83;;
53927;SDS011;39837;47.630;18.822;2022-07-05T08:08:03;1.35;;;1.33;;
53927;SDS011;39837;47.630;18.822;2022-07-05T08:10:47;2.53;;;1.15;;
53927;SDS011;39837;47.630;18.822;2022-07-05T08:13:31;1.58;;;1.40;;
53927;SDS011;39837;47.630;18.822;2022-07-05T08:16:16;1.13;;;1.13;;
53927;SDS011;39837;47.630;18.822;2022-07-05T08:19:00;2.05;;;1.20;;
53927;SDS011;39837;47.630;18.822;2022-07-05T08:22:03;1.30;;;1.20;;
53927;SDS011;39837;47.630;18.822;2022-07-05T08:24:47;0.90;;;0.90;;
53927;SDS011;39837;47.630;18.822;2022-07-05T08:27:31;1.23;;;1.23;;
53927;SDS011;39837;47.630;18.822;2022-07-05T08:30:15;1.38;;;1.27;;
53927;SDS011;39837;47.630;18.822;2022-07-05T08:32:59;3.20;;;1.23;;
53927;SDS011;39837;47.630;18.822;2022-07-05T08:35:43;3.30;;;1.80;;
53927;SDS011;39837;47.630;18.822;2022-07-05T08:38:27;4.95;;;1.33;;
53927;SDS011;39837;47.630;18.822;2022-07-05T08:41:11;2.00;;;1.35;;
53927;SDS011;39837;47.630;18.822;2022-07-05T08:43:57;2.47;;;1.93;;
53927;SDS011;39837;47.630;18.822;2022-07-05T08:46:41;4.80;;;1.58;;
53927;SDS011;39837;47.630;18.822;2022-07-05T08:49:26;1.83;;;1.73;;
53927;SDS011;39837;47.630;18.822;2022-07-05T08:52:11;1.23;;;1.23;;
53927;SDS011;39837;47.630;18.822;2022-07-05T08:57:40;1.35;;;1.23;;
53927;SDS011;39837;47.630;18.822;2022-07-05T09:00:24;1.23;;;1.23;;
53927;SDS011;39837;47.630;18.822;2022-07-05T09:03:08;3.80;;;1.40;;
53927;SDS011;39837;47.630;18.822;2022-07-05T09:05:52;8.00;;;1.90;;
53927;SDS011;39837;47.630;18.822;2022-07-05T09:08:39;2.35;;;1.50;;
53927;SDS011;39837;47.630;18.822;2022-07-05T09:11:40;11.40;;;1.52;;
53927;SDS011;39837;47.630;18.822;2022-07-05T09:14:25;1.88;;;1.60;;
53927;SDS011;39837;47.630;18.822;2022-07-05T09:17:09;1.08;;;1.08;;
53927;SDS011;39837;47.630;18.822;2022-07-05T09:20:04;1.20;;;1.20;;
53927;SDS011;39837;47.630;18.822;2022-07-05T09:22:52;1.70;;;1.60;;
53927;SDS011;39837;47.630;18.822;2022-07-05T09:25:38;1.30;;;1.30;;
53927;SDS011;39837;47.630;18.822;2022-07-05T09:28:22;1.70;;;1.60;;
53927;SDS011;39837;47.630;18.822;2022-07-05T09:31:05;2.17;;;1.75;;
53927;SDS011;39837;47.630;18.822;2022-07-05T09:33:49;1.63;;;1.52;;
53927;SDS011;39837;47.630;18.822;2022-07-05T09:36:46;1.83;;;1.42;;
53927;SDS011;39837;47.630;18.822;2022-07-05T09:42:22;2.55;;;2.35;;
53927;SDS011;39837;47.630;18.822;2022-07-05T09:45:09;14.95;;;1.98;;
53927;SDS011;39837;47.630;18.822;2022-07-05T09:47:53;2.03;;;1.90;;
53927;SDS011;39837;47.630;18.822;2022-07-05T09:50:39;2.00;;;1.90;;
53927;SDS011;39837;47.630;18.822;2022-07-05T09:53:23;8.18;;;2.08;;
53927;SDS011;39837;47.630;18.822;2022-07-05T09:56:07;1.95;;;1.85;;
53927;SDS011;39837;47.630;18.822;2022-07-05T09:58:51;1.98;;;1.88;;
53927;SDS011;39837;47.630;18.822;2022-07-05T10:01:35;5.05;;;1.88;;
53927;SDS011;39837;47.630;18.822;2022-07-05T10:04:21;1.70;;;1.67;;
53927;SDS011;39837;47.630;18.822;2022-07-05T10:07:05;2.50;;;2.15;;
53927;SDS011;39837;47.630;18.822;2022-07-05T10:09:48;3.10;;;2.22;;
53927;SDS011;39837;47.630;18.822;2022-07-05T10:12:32;3.03;;;1.95;;
53927;SDS011;39837;47.630;18.822;2022-07-05T10:15:20;1.85;;;1.85;;
53927;SDS011;39837;47.630;18.822;2022-07-05T10:18:06;4.90;;;2.53;;
53927;SDS011;39837;47.630;18.822;2022-07-05T10:20:52;2.00;;;1.90;;
53927;SDS011;39837;47.630;18.822;2022-07-05T10:23:36;1.55;;;1.55;;
53927;SDS011;39837;47.630;18.822;2022-07-05T10:26:22;2.13;;;1.95;;
53927;SDS011;39837;47.630;18.822;2022-07-05T10:29:07;1.58;;;1.58;;
53927;SDS011;39837;47.630;18.822;2022-07-05T10:31:53;4.22;;;2.13;;
53927;SDS011;39837;47.630;18.822;2022-07-05T10:34:37;1.70;;;1.60;;
53927;SDS011;39837;47.630;18.822;2022-07-05T10:37:22;2.10;;;2.00;;
53927;SDS011;39837;47.630;18.822;2022-07-05T10:40:09;2.00;;;1.80;;
53927;SDS011;39837;47.630;18.822;2022-07-05T10:42:55;2.78;;;2.58;;
53927;SDS011;39837;47.630;18.822;2022-07-05T10:45:42;2.38;;;2.17;;
53927;SDS011;39837;47.630;18.822;2022-07-05T10:48:31;1.90;;;1.80;;
53927;SDS011;39837;47.630;18.822;2022-07-05T10:51:15;3.40;;;2.35;;
53927;SDS011;39837;47.630;18.822;2022-07-05T10:54:00;3.75;;;1.45;;
53927;SDS011;39837;47.630;18.822;2022-07-05T11:00:14;1.92;;;1.77;;
53927;SDS011;39837;47.630;18.822;2022-07-05T11:03:05;1.90;;;1.80;;
53927;SDS011;39837;47.630;18.822;2022-07-05T11:05:49;1.92;;;1.83;;
53927;SDS011;39837;47.630;18.822;2022-07-05T11:09:20;1.80;;;1.70;;
53927;SDS011;39837;47.630;18.822;2022-07-05T11:11:45;2.22;;;1.73;;
53927;SDS011;39837;47.630;18.822;2022-07-05T11:14:50;1.75;;;1.75;;
53927;SDS011;39837;47.630;18.822;2022-07-05T11:17:34;9.00;;;2.38;;
53927;SDS011;39837;47.630;18.822;2022-07-05T11:20:30;1.85;;;1.75;;
53927;SDS011;39837;47.630;18.822;2022-07-05T11:23:14;2.20;;;2.10;;
53927;SDS011;39837;47.630;18.822;2022-07-05T11:28:55;1.98;;;1.88;;
53927;SDS011;39837;47.630;18.822;2022-07-05T11:31:40;2.13;;;2.03;;
53927;SDS011;39837;47.630;18.822;2022-07-05T11:34:32;3.30;;;2.58;;
53927;SDS011;39837;47.630;18.822;2022-07-05T11:37:17;3.00;;;2.25;;
53927;SDS011;39837;47.630;18.822;2022-07-05T11:42:54;3.20;;;2.90;;
53927;SDS011;39837;47.630;18.822;2022-07-05T11:45:38;2.67;;;2.47;;
53927;SDS011;39837;47.630;18.822;2022-07-05T11:48:22;3.22;;;3.00;;
53927;SDS011;39837;47.630;18.822;2022-07-05T11:51:14;3.47;;;2.22;;
53927;SDS011;39837;47.630;18.822;2022-07-05T11:53:59;2.30;;;2.10;;
53927;SDS011;39837;47.630;18.822;2022-07-05T11:56:45;5.78;;;2.83;;
53927;SDS011;39837;47.630;18.822;2022-07-05T11:59:29;3.30;;;2.55;;
53927;SDS011;39837;47.630;18.822;2022-07-05T12:02:13;1.90;;;1.90;;
53927;SDS011;39837;47.630;18.822;2022-07-05T12:04:57;2.38;;;2.17;;
53927;SDS011;39837;47.630;18.822;2022-07-05T12:07:47;2.75;;;2.55;;
53927;SDS011;39837;47.630;18.822;2022-07-05T12:10:32;2.30;;;2.20;;
53927;SDS011;39837;47.630;18.822;2022-07-05T12:13:49;6.25;;;2.33;;
53927;SDS011;39837;47.630;18.822;2022-07-05T12:16:34;2.67;;;2.47;;
53927;SDS011;39837;47.630;18.822;2022-07-05T12:19:25;1.98;;;1.88;;
53927;SDS011;39837;47.630;18.822;2022-07-05T12:22:10;2.22;;;2.00;;
53927;SDS011;39837;47.630;18.822;2022-07-05T12:24:54;2.88;;;2.22;;
53927;SDS011;39837;47.630;18.822;2022-07-05T12:27:39;1.83;;;1.73;;
53927;SDS011;39837;47.630;18.822;2022-07-05T12:30:27;1.70;;;1.70;;
53927;SDS011;39837;47.630;18.822;2022-07-05T12:33:12;2.67;;;2.00;;
53927;SDS011;39837;47.630;18.822;2022-07-05T12:35:56;2.65;;;1.92;;
53927;SDS011;39837;47.630;18.822;2022-07-05T12:38:40;2.35;;;2.15;;
53927;SDS011;39837;47.630;18.822;2022-07-05T12:41:25;2.63;;;2.42;;
53927;SDS011;39837;47.630;18.822;2022-07-05T12:44:08;2.80;;;2.60;;
53927;SDS011;39837;47.630;18.822;2022-07-05T12:47:02;2.67;;;2.33;;
53927;SDS011;39837;47.630;18.822;2022-07-05T12:49:52;5.18;;;2.22;;
53927;SDS011;39837;47.630;18.822;2022-07-05T12:52:53;1.90;;;1.80;;
53927;SDS011;39837;47.630;18.822;2022-07-05T12:55:41;3.47;;;1.90;;
53927;SDS011;39837;47.630;18.822;2022-07-05T12:58:48;1.70;;;1.70;;
53927;SDS011;39837;47.630;18.822;2022-07-05T13:01:34;2.35;;;2.15;;
53927;SDS011;39837;47.630;18.822;2022-07-05T13:04:21;2.22;;;2.10;;
53927;SDS011;39837;47.630;18.822;2022-07-05T13:07:05;2.13;;;2.03;;
53927;SDS011;39837;47.630;18.822;2022-07-05T13:09:48;2.13;;;1.95;;
53927;SDS011;39837;47.630;18.822;2022-07-05T13:12:33;4.85;;;2.00;;
53927;SDS011;39837;47.630;18.822;2022-07-05T13:15:18;1.90;;;1.80;;
53927;SDS011;39837;47.630;18.822;2022-07-05T13:18:02;1.58;;;1.52;;
53927;SDS011;39837;47.630;18.822;2022-07-05T13:20:47;1.65;;;1.60;;
53927;SDS011;39837;47.630;18.822;2022-07-05T13:23:33;2.08;;;1.80;;
53927;SDS011;39837;47.630;18.822;2022-07-05T13:26:17;1.80;;;1.70;;
53927;SDS011;39837;47.630;18.822;2022-07-05T13:29:02;2.60;;;2.00;;
53927;SDS011;39837;47.630;18.822;2022-07-05T13:31:46;1.67;;;1.60;;
53927;SDS011;39837;47.630;18.822;2022-07-05T13:34:30;2.15;;;1.75;;
53927;SDS011;39837;47.630;18.822;2022-07-05T13:37:15;1.85;;;1.80;;
53927;SDS011;39837;47.630;18.822;2022-07-05T13:39:59;1.98;;;1.75;;
53927;SDS011;39837;47.630;18.822;2022-07-05T13:42:43;1.95;;;1.85;;
53927;SDS011;39837;47.630;18.822;2022-07-05T13:45:27;1.75;;;1.65;;
53927;SDS011;39837;47.630;18.822;2022-07-05T13:48:11;3.17;;;1.77;;
53927;SDS011;39837;47.630;18.822;2022-07-05T13:50:55;2.15;;;1.88;;
53927;SDS011;39837;47.630;18.822;2022-07-05T13:53:39;1.77;;;1.77;;
53927;SDS011;39837;47.630;18.822;2022-07-05T13:56:23;1.83;;;1.83;;
53927;SDS011;39837;47.630;18.822;2022-07-05T13:59:09;1.80;;;1.70;;
53927;SDS011;39837;47.630;18.822;2022-07-05T14:01:53;2.08;;;1.98;;
53927;SDS011;39837;47.630;18.822;2022-07-05T14:04:38;2.97;;;2.03;;
53927;SDS011;39837;47.630;18.822;2022-07-05T14:07:22;1.45;;;1.45;;
53927;SDS011;39837;47.630;18.822;2022-07-05T14:10:06;1.70;;;1.70;;
53927;SDS011;39837;47.630;18.822;2022-07-05T14:12:50;2.10;;;2.00;;
53927;SDS011;39837;47.630;18.822;2022-07-05T14:15:34;2.25;;;2.15;;
53927;SDS011;39837;47.630;18.822;2022-07-05T14:18:19;3.97;;;2.20;;
53927;SDS011;39837;47.630;18.822;2022-07-05T14:23:47;2.00;;;1.90;;
53927;SDS011;39837;47.630;18.822;2022-07-05T14:26:32;2.10;;;2.00;;
53927;SDS011;39837;47.630;18.822;2022-07-05T14:29:16;2.78;;;2.05;;
53927;SDS011;39837;47.630;18.822;2022-07-05T14:32:00;3.30;;;2.15;;
53927;SDS011;39837;47.630;18.822;2022-07-05T14:34:44;1.80;;;1.77;;
53927;SDS011;39837;47.630;18.822;2022-07-05T14:37:29;2.20;;;2.00;;
53927;SDS011;39837;47.630;18.822;2022-07-05T14:40:13;2.97;;;2.30;;
53927;SDS011;39837;47.630;18.822;2022-07-05T14:42:58;4.70;;;2.10;;
53927;SDS011;39837;47.630;18.822;2022-07-05T14:45:43;2.08;;;1.98;;
53927;SDS011;39837;47.630;18.822;2022-07-05T14:48:27;1.98;;;1.88;;
53927;SDS011;39837;47.630;18.822;2022-07-05T14:51:12;1.42;;;1.42;;
53927;SDS011;39837;47.630;18.822;2022-07-05T14:53:56;2.28;;;1.52;;
53927;SDS011;39837;47.630;18.822;2022-07-05T14:56:40;1.58;;;1.58;;
53927;SDS011;39837;47.630;18.822;2022-07-05T14:59:24;1.38;;;1.30;;
53927;SDS011;39837;47.630;18.822;2022-07-05T15:02:08;2.17;;;2.05;;
53927;SDS011;39837;47.630;18.822;2022-07-05T15:04:52;1.60;;;1.60;;
53927;SDS011;39837;47.630;18.822;2022-07-05T15:07:37;5.10;;;1.45;;
53927;SDS011;39837;47.630;18.822;2022-07-05T15:13:06;1.50;;;1.50;;
53927;SDS011;39837;47.630;18.822;2022-07-05T15:15:52;1.20;;;1.20;;
53927;SDS011;39837;47.630;18.822;2022-07-05T15:18:37;1.50;;;1.50;;
53927;SDS011;39837;47.630;18.822;2022-07-05T15:21:22;1.95;;;1.85;;
53927;SDS011;39837;47.630;18.822;2022-07-05T15:24:06;1.55;;;1.45;;
53927;SDS011;39837;47.630;18.822;2022-07-05T15:26:50;4.15;;;1.83;;
53927;SDS011;39837;47.630;18.822;2022-07-05T15:29:35;2.58;;;1.67;;
53927;SDS011;39837;47.630;18.822;2022-07-05T15:32:19;2.63;;;1.70;;
53927;SDS011;39837;47.630;18.822;2022-07-05T15:35:03;2.33;;;1.50;;
53927;SDS011;39837;47.630;18.822;2022-07-05T15:37:48;4.72;;;1.50;;
53927;SDS011;39837;47.630;18.822;2022-07-05T15:40:32;1.40;;;1.40;;
53927;SDS011;39837;47.630;18.822;2022-07-05T15:43:16;1.60;;;1.50;;
53927;SDS011;39837;47.630;18.822;2022-07-05T15:48:45;1.20;;;1.20;;
53927;SDS011;39837;47.630;18.822;2022-07-05T15:51:31;1.45;;;1.20;;
53927;SDS011;39837;47.630;18.822;2022-07-05T15:54:15;1.40;;;1.40;;
53927;SDS011;39837;47.630;18.822;2022-07-05T15:56:59;1.25;;;1.25;;
53927;SDS011;39837;47.630;18.822;2022-07-05T15:59:43;1.13;;;1.08;;
53927;SDS011;39837;47.630;18.822;2022-07-05T16:02:28;1.27;;;1.27;;
53927;SDS011;39837;47.630;18.822;2022-07-05T16:05:12;1.48;;;1.48;;
53927;SDS011;39837;47.630;18.822;2022-07-05T16:07:56;3.22;;;1.48;;
53927;SDS011;39837;47.630;18.822;2022-07-05T16:10:40;4.88;;;1.80;;
53927;SDS011;39837;47.630;18.822;2022-07-05T16:13:24;1.52;;;1.42;;
53927;SDS011;39837;47.630;18.822;2022-07-05T16:16:08;1.63;;;1.52;;
53927;SDS011;39837;47.630;18.822;2022-07-05T16:18:55;1.30;;;1.30;;
53927;SDS011;39837;47.630;18.822;2022-07-05T16:24:25;1.40;;;1.40;;
53927;SDS011;39837;47.630;18.822;2022-07-05T16:27:09;1.40;;;1.40;;
53927;SDS011;39837;47.630;18.822;2022-07-05T16:29:53;1.67;;;1.58;;
53927;SDS011;39837;47.630;18.822;2022-07-05T16:32:37;2.42;;;2.22;;
53927;SDS011;39837;47.630;18.822;2022-07-05T16:35:23;4.03;;;3.10;;
53927;SDS011;39837;47.630;18.822;2022-07-05T16:38:07;1.75;;;1.65;;
53927;SDS011;39837;47.630;18.822;2022-07-05T16:40:51;2.03;;;1.92;;
53927;SDS011;39837;47.630;18.822;2022-07-05T16:43:35;2.08;;;1.90;;
53927;SDS011;39837;47.630;18.822;2022-07-05T16:46:22;1.95;;;1.85;;
53927;SDS011;39837;47.630;18.822;2022-07-05T16:49:06;2.03;;;1.92;;
53927;SDS011;39837;47.630;18.822;2022-07-05T16:51:50;2.58;;;1.60;;
53927;SDS011;39837;47.630;18.822;2022-07-05T16:54:34;2.00;;;1.90;;